Time;durP1;ratioP1;P1;durP2;ratioP2;P2;SDS_P1;SDS_P2;PMS_P1;PMS_P2;Temp;Humidity;BMP_temperature;BMP_pressure;BME280_temperature;BME280_humidity;BME280_pressure;Samples;Min_cycle;Max_cycle;Signal;HPM_P1;HPM_P2
2021/11/27 00:01:59;;;;;;;10.20;8.10;;;6.90;87.00;;;;;;4967245;28;20058;-85
2021/11/27 00:04:25;;;;;;;10.38;7.72;;;6.90;87.00;;;;;;4968585;28;20023;-85
2021/11/27 00:06:50;;;;;;;10.50;7.88;;;6.90;87.00;;;;;;4969139;28;20023;-84
2021/11/27 00:09:16;;;;;;;9.57;7.40;;;7.00;87.00;;;;;;4968391;28;20039;-85
2021/11/27 00:11:42;;;;;;;9.30;7.40;;;7.00;86.90;;;;;;4969092;28;20018;-85
2021/11/27 00:14:09;;;;;;;8.98;7.30;;;7.00;86.80;;;;;;4969218;28;20031;-85
2021/11/27 00:16:35;;;;;;;9.32;7.22;;;7.00;86.90;;;;;;4969349;28;20698;-85
2021/11/27 00:19:01;;;;;;;9.70;7.13;;;6.90;86.80;;;;;;4969404;28;20564;-84
2021/11/27 00:21:26;;;;;;;9.15;7.07;;;6.90;86.90;;;;;;4970104;28;20139;-84
2021/11/27 00:23:53;;;;;;;9.60;7.32;;;6.90;86.90;;;;;;4970357;28;20026;-84
2021/11/27 00:26:21;;;;;;;7.25;5.70;;;6.90;87.00;;;;;;4969695;28;20046;-84
2021/11/27 00:28:48;;;;;;;9.45;7.30;;;6.90;87.00;;;;;;4968841;28;20065;-85
2021/11/27 00:31:25;;;;;;;9.60;7.20;;;6.90;87.00;;;;;;4968832;28;20023;-84
2021/11/27 00:33:51;;;;;;;10.00;6.70;;;6.90;86.90;;;;;;4963940;28;20030;-84
2021/11/27 00:36:18;;;;;;;9.27;6.80;;;6.90;86.90;;;;;;4970082;28;20121;-84
2021/11/27 00:38:43;;;;;;;9.68;7.32;;;6.90;86.80;;;;;;4970094;28;20062;-84
2021/11/27 00:41:11;;;;;;;10.13;6.78;;;6.90;86.80;;;;;;4968786;28;20026;-84
2021/11/27 00:43:37;;;;;;;8.20;6.25;;;6.90;86.80;;;;;;4969716;28;20816;-84
2021/11/27 00:46:03;;;;;;;9.32;6.85;;;6.90;86.80;;;;;;4971016;28;20033;-83
2021/11/27 00:48:29;;;;;;;8.93;6.28;;;6.90;86.70;;;;;;4974360;28;20035;-84
2021/11/27 00:51:17;;;;;;;9.10;7.20;;;7.00;86.80;;;;;;4973249;28;20496;-83
2021/11/27 00:53:43;;;;;;;10.10;7.10;;;6.90;86.70;;;;;;4968046;28;20579;-84
2021/11/27 00:56:09;;;;;;;10.82;7.85;;;6.90;86.70;;;;;;4973150;28;20031;-83
2021/11/27 00:58:35;;;;;;;9.95;7.32;;;6.90;86.80;;;;;;4972277;28;20023;-84
2021/11/27 01:01:04;;;;;;;10.93;7.65;;;6.90;86.90;;;;;;4972052;28;20532;-83
2021/11/27 01:03:32;;;;;;;10.43;7.22;;;6.80;86.80;;;;;;4970896;28;20061;-83
2021/11/27 01:06:01;;;;;;;8.63;6.55;;;6.80;86.80;;;;;;4972811;28;20114;-83
2021/11/27 01:08:27;;;;;;;8.85;6.47;;;6.80;86.90;;;;;;4973785;28;20138;-84
2021/11/27 01:11:01;;;;;;;8.90;6.57;;;6.80;86.80;;;;;;4972919;28;20271;-83
2021/11/27 01:13:28;;;;;;;8.98;6.78;;;6.80;86.80;;;;;;4973277;28;20487;-84
2021/11/27 01:15:53;;;;;;;8.80;6.50;;;6.70;86.70;;;;;;4972771;28;20126;-83
2021/11/27 01:18:19;;;;;;;10.88;6.88;;;6.70;86.80;;;;;;4973543;28;20122;-84
2021/11/27 01:20:49;;;;;;;9.85;7.35;;;6.60;86.80;;;;;;4972703;28;20042;-84
2021/11/27 01:23:14;;;;;;;9.80;7.10;;;6.70;86.90;;;;;;4973168;28;20054;-84
2021/11/27 01:25:40;;;;;;;10.00;6.97;;;6.70;86.80;;;;;;4972756;28;20054;-84
2021/11/27 01:28:07;;;;;;;9.32;6.93;;;6.70;86.80;;;;;;4973318;28;20027;-84
2021/11/27 01:30:33;;;;;;;9.68;7.35;;;6.70;86.80;;;;;;4972926;28;20054;-84
2021/11/27 01:32:59;;;;;;;11.65;7.78;;;6.70;86.70;;;;;;4972916;28;20031;-84
2021/11/27 01:35:24;;;;;;;9.15;6.78;;;6.70;86.70;;;;;;4970202;28;20053;-84
2021/11/27 01:37:50;;;;;;;9.30;6.43;;;6.70;86.70;;;;;;4972963;28;20037;-84
2021/11/27 01:40:22;;;;;;;9.13;6.32;;;6.70;86.70;;;;;;4972326;28;20082;-84
2021/11/27 01:42:48;;;;;;;9.57;6.28;;;6.70;86.70;;;;;;4973108;28;20027;-85
2021/11/27 01:45:17;;;;;;;7.72;5.45;;;6.60;86.80;;;;;;4972344;28;20085;-84
2021/11/27 01:48:10;;;;;;;8.38;5.80;;;6.60;86.80;;;;;;4972910;28;20434;-84
2021/11/27 01:50:40;;;;;;;7.72;4.82;;;6.70;87.00;;;;;;4968597;28;20046;-82
2021/11/27 01:53:06;;;;;;;6.85;5.10;;;6.70;86.80;;;;;;4972496;28;20058;-84
2021/11/27 01:55:33;;;;;;;7.30;4.80;;;6.60;86.70;;;;;;4971296;28;20046;-84
2021/11/27 01:57:58;;;;;;;7.25;4.82;;;6.70;86.70;;;;;;4970208;28;20027;-84
2021/11/27 02:00:31;;;;;;;7.15;4.70;;;6.70;86.70;;;;;;4971999;28;20093;-84
2021/11/27 02:02:57;;;;;;;7.82;5.22;;;6.70;86.60;;;;;;4967056;28;20089;-85
2021/11/27 02:05:23;;;;;;;6.82;4.70;;;6.60;86.50;;;;;;4972110;28;20035;-84
2021/11/27 02:07:50;;;;;;;7.13;5.28;;;6.60;86.60;;;;;;4972305;28;20053;-84
2021/11/27 02:10:16;;;;;;;7.40;5.18;;;6.60;86.50;;;;;;4972515;28;20666;-85
2021/11/27 02:12:43;;;;;;;7.10;4.55;;;6.60;86.50;;;;;;4972261;28;20093;-85
2021/11/27 02:15:10;;;;;;;7.65;4.78;;;6.60;86.40;;;;;;4970652;28;20517;-85
2021/11/27 02:17:36;;;;;;;5.38;3.63;;;6.50;86.40;;;;;;4972429;28;20058;-86
2021/11/27 02:20:02;;;;;;;4.07;3.10;;;6.50;87.10;;;;;;4972345;28;20058;-85
2021/11/27 02:22:30;;;;;;;3.60;2.58;;;6.40;86.40;;;;;;4971643;28;20027;-85
2021/11/27 02:24:56;;;;;;;4.00;2.50;;;6.40;86.40;;;;;;4970382;28;20125;-85
2021/11/27 02:27:21;;;;;;;2.80;2.10;;;6.30;86.50;;;;;;4972036;28;20440;-86
2021/11/27 02:29:47;;;;;;;5.45;2.00;;;6.30;86.50;;;;;;4972025;28;20482;-86
2021/11/27 02:32:13;;;;;;;2.33;1.88;;;6.30;86.50;;;;;;4971776;28;20034;-85
2021/11/27 02:34:39;;;;;;;1.60;1.50;;;6.30;86.50;;;;;;4971998;28;20038;-86
2021/11/27 02:37:06;;;;;;;2.38;1.48;;;6.20;86.50;;;;;;4968621;28;20034;-86
2021/11/27 02:39:34;;;;;;;1.80;1.50;;;6.20;86.50;;;;;;4971368;28;20476;-86
2021/11/27 02:41:59;;;;;;;1.90;1.40;;;6.20;86.40;;;;;;4970346;28;20015;-85
2021/11/27 02:44:28;;;;;;;2.53;1.30;;;6.20;86.40;;;;;;4970540;28;20138;-86
2021/11/27 02:46:54;;;;;;;2.13;1.33;;;6.20;86.30;;;;;;4970222;28;20031;-86
2021/11/27 02:49:20;;;;;;;1.42;1.23;;;6.10;86.30;;;;;;4971591;28;20493;-85
2021/11/27 02:51:46;;;;;;;2.10;1.27;;;6.10;86.50;;;;;;4971669;28;20073;-86
2021/11/27 02:54:12;;;;;;;1.48;1.20;;;6.00;86.50;;;;;;4970341;28;20057;-86
2021/11/27 02:56:38;;;;;;;1.70;1.20;;;5.90;86.50;;;;;;4969187;28;20125;-86
2021/11/27 02:59:12;;;;;;;1.52;1.10;;;5.90;86.50;;;;;;4971621;28;20050;-86
2021/11/27 03:01:41;;;;;;;3.03;1.30;;;5.90;86.50;;;;;;4969811;28;20019;-86
2021/11/27 03:04:07;;;;;;;1.00;0.90;;;5.80;86.30;;;;;;4971748;28;20043;-87
2021/11/27 03:06:33;;;;;;;3.13;1.30;;;5.90;86.40;;;;;;4969496;28;20026;-84
2021/11/27 03:09:01;;;;;;;1.20;0.95;;;5.90;86.40;;;;;;4970821;28;20027;-83
2021/11/27 03:11:27;;;;;;;1.10;1.00;;;5.90;86.30;;;;;;4968768;28;20050;-83
2021/11/27 03:13:52;;;;;;;1.40;0.90;;;5.80;86.20;;;;;;4970341;28;20109;-84
2021/11/27 03:16:18;;;;;;;1.20;1.10;;;5.80;86.30;;;;;;4970932;28;20081;-84
2021/11/27 03:18:44;;;;;;;1.40;1.10;;;5.80;86.30;;;;;;4970840;28;20019;-84
2021/11/27 03:21:10;;;;;;;1.20;1.05;;;5.80;86.30;;;;;;4971211;28;20031;-84
2021/11/27 03:23:36;;;;;;;1.15;1.00;;;5.80;86.30;;;;;;4970817;28;20496;-84
2021/11/27 03:26:02;;;;;;;0.90;0.90;;;5.80;86.30;;;;;;4970878;28;20042;-85
2021/11/27 03:28:28;;;;;;;0.98;0.95;;;5.80;86.30;;;;;;4971019;28;20084;-84
2021/11/27 03:30:54;;;;;;;2.38;1.10;;;5.80;86.30;;;;;;4970913;28;20030;-86
2021/11/27 03:33:19;;;;;;;1.27;1.10;;;5.70;86.20;;;;;;4970788;28;20023;-85
2021/11/27 03:35:45;;;;;;;0.85;0.77;;;5.60;86.20;;;;;;4963392;28;20109;-83
2021/11/27 03:38:11;;;;;;;0.80;0.80;;;5.60;86.20;;;;;;4969005;28;20507;-84
2021/11/27 03:40:38;;;;;;;1.33;1.10;;;5.60;86.20;;;;;;4970855;28;20073;-84
2021/11/27 03:43:04;;;;;;;1.55;1.30;;;5.60;86.20;;;;;;4969473;28;20109;-84
2021/11/27 03:45:29;;;;;;;1.40;1.10;;;5.60;86.10;;;;;;4970250;28;20788;-84
2021/11/27 03:48:06;;;;;;;1.10;1.00;;;5.50;86.20;;;;;;4970973;28;20038;-85
2021/11/27 03:50:39;;;;;;;1.08;1.00;;;5.50;86.20;;;;;;4969403;28;20023;-84
2021/11/27 03:53:07;;;;;;;1.20;1.10;;;5.50;86.10;;;;;;4965042;28;20023;-86
2021/11/27 03:55:33;;;;;;;1.10;1.10;;;5.50;86.20;;;;;;4968839;28;20637;-86
2021/11/27 03:57:59;;;;;;;1.27;1.17;;;5.50;86.10;;;;;;4969490;28;20026;-86
2021/11/27 04:00:25;;;;;;;1.80;1.00;;;5.40;85.90;;;;;;4970542;28;20027;-86
2021/11/27 04:02:51;;;;;;;1.30;1.20;;;5.40;85.90;;;;;;4969343;28;20023;-84
2021/11/27 04:05:19;;;;;;;1.92;1.20;;;5.40;85.90;;;;;;4968670;28;20500;-85
2021/11/27 04:07:44;;;;;;;1.10;1.00;;;5.40;85.90;;;;;;4970703;28;20031;-85
2021/11/27 04:10:10;;;;;;;1.17;1.08;;;5.40;85.90;;;;;;4970640;28;20022;-85
2021/11/27 04:12:36;;;;;;;1.40;1.30;;;5.30;85.80;;;;;;4970543;28;20507;-85
2021/11/27 04:15:03;;;;;;;1.50;1.20;;;5.30;85.80;;;;;;4969549;28;20039;-86
2021/11/27 04:17:29;;;;;;;1.20;1.10;;;5.30;86.40;;;;;;4968909;28;20062;-84
2021/11/27 04:19:54;;;;;;;1.10;1.00;;;5.30;85.70;;;;;;4970476;28;20074;-84
2021/11/27 04:22:20;;;;;;;1.10;1.00;;;5.40;85.80;;;;;;4974705;28;20402;-84
2021/11/27 04:24:45;;;;;;;1.23;1.10;;;5.30;85.70;;;;;;4973937;28;20022;-84
2021/11/27 04:27:11;;;;;;;1.13;1.13;;;5.40;85.60;;;;;;4974406;28;20390;-84
2021/11/27 04:29:36;;;;;;;0.70;0.70;;;5.30;85.70;;;;;;4973534;28;20468;-85
2021/11/27 04:32:02;;;;;;;1.40;1.13;;;5.20;85.60;;;;;;4974532;28;20057;-85
2021/11/27 04:34:28;;;;;;;1.30;1.20;;;5.10;85.30;;;;;;4973698;28;20041;-84
2021/11/27 04:36:53;;;;;;;1.00;1.00;;;5.10;85.60;;;;;;4968208;28;20035;-85
2021/11/27 04:39:19;;;;;;;1.52;1.13;;;5.10;85.60;;;;;;4973461;28;20034;-85
2021/11/27 04:41:44;;;;;;;1.42;1.20;;;5.10;85.70;;;;;;4974519;28;20114;-84
2021/11/27 04:44:10;;;;;;;1.10;1.00;;;5.00;85.60;;;;;;4973790;28;20035;-84
2021/11/27 04:46:35;;;;;;;0.98;0.98;;;5.00;85.60;;;;;;4973628;28;20031;-84
2021/11/27 04:49:01;;;;;;;1.08;1.08;;;5.00;85.60;;;;;;4973810;28;20026;-83
2021/11/27 04:51:26;;;;;;;1.10;1.00;;;4.90;85.50;;;;;;4974068;28;20019;-84
2021/11/27 04:53:52;;;;;;;1.20;1.10;;;4.90;85.50;;;;;;4973978;28;20037;-84
2021/11/27 04:56:18;;;;;;;1.10;1.10;;;4.80;85.50;;;;;;4973414;28;20035;-84
2021/11/27 04:58:43;;;;;;;1.08;0.98;;;4.80;85.60;;;;;;4972344;28;20408;-83
2021/11/27 05:01:09;;;;;;;1.10;1.00;;;4.80;85.60;;;;;;4973903;28;20030;-84
2021/11/27 05:03:34;;;;;;;1.00;1.00;;;4.80;85.50;;;;;;4972888;28;20030;-83
2021/11/27 05:06:00;;;;;;;1.10;1.00;;;4.80;85.60;;;;;;4973566;28;20114;-84
2021/11/27 05:08:26;;;;;;;0.85;0.85;;;4.80;85.50;;;;;;4972558;28;20424;-84
2021/11/27 05:10:51;;;;;;;1.10;1.10;;;4.80;85.50;;;;;;4973115;28;20034;-83
2021/11/27 05:13:18;;;;;;;1.23;1.10;;;4.70;85.40;;;;;;4973315;28;20047;-84
2021/11/27 05:15:43;;;;;;;1.25;1.10;;;4.60;85.50;;;;;;4971939;28;20038;-83
2021/11/27 05:18:09;;;;;;;1.23;1.10;;;4.70;86.10;;;;;;4973691;28;20037;-83
2021/11/27 05:20:34;;;;;;;1.17;0.98;;;4.70;85.60;;;;;;4973229;28;20092;-84
2021/11/27 05:23:00;;;;;;;1.17;1.10;;;4.70;85.60;;;;;;4972996;28;20037;-83
2021/11/27 05:25:26;;;;;;;1.08;1.00;;;4.70;85.40;;;;;;4972548;28;20034;-84
2021/11/27 05:27:52;;;;;;;0.80;0.80;;;4.70;85.40;;;;;;4972854;28;20070;-83
2021/11/27 05:30:18;;;;;;;1.17;0.90;;;4.70;85.90;;;;;;4973269;28;20035;-84
2021/11/27 05:35:24;;;;;;;1.27;1.20;;;4.60;85.30;;;;;;4972499;28;20043;-85
2021/11/27 05:37:50;;;;;;;0.88;0.88;;;4.50;85.10;;;;;;4971707;28;20101;-88
2021/11/27 05:40:16;;;;;;;1.10;1.10;;;4.60;85.20;;;;;;4973046;28;20071;-84
2021/11/27 05:42:43;;;;;;;1.00;1.00;;;4.50;85.20;;;;;;4973224;28;20031;-84
2021/11/27 05:45:10;;;;;;;1.10;1.00;;;4.50;85.30;;;;;;4972262;28;20034;-84
2021/11/27 05:47:36;;;;;;;1.20;1.10;;;4.50;85.90;;;;;;4972859;28;20161;-84
2021/11/27 05:50:03;;;;;;;1.00;1.00;;;4.50;85.30;;;;;;4972617;28;20031;-84
2021/11/27 05:52:29;;;;;;;1.10;1.00;;;4.50;85.40;;;;;;4972680;28;20553;-84
2021/11/27 05:54:55;;;;;;;1.05;0.90;;;4.50;85.30;;;;;;4971504;28;20145;-85
2021/11/27 05:57:20;;;;;;;1.00;0.82;;;4.50;85.30;;;;;;4972309;28;20030;-87
2021/11/27 05:59:46;;;;;;;0.90;0.80;;;4.40;85.30;;;;;;4972391;28;20393;-85
2021/11/27 06:02:12;;;;;;;1.00;1.00;;;4.50;85.30;;;;;;4971652;28;20058;-86
2021/11/27 06:04:38;;;;;;;1.05;1.00;;;4.50;85.30;;;;;;4970613;28;20126;-86
2021/11/27 06:07:04;;;;;;;0.90;0.90;;;4.50;85.20;;;;;;4971198;28;20115;-84
2021/11/27 06:09:29;;;;;;;1.00;1.00;;;4.40;85.20;;;;;;4972050;28;20035;-84
2021/11/27 06:11:55;;;;;;;0.90;0.90;;;4.50;85.20;;;;;;4972495;28;20388;-84
2021/11/27 06:14:20;;;;;;;1.38;1.10;;;4.50;85.90;;;;;;4972020;28;20441;-84
2021/11/27 06:16:46;;;;;;;1.40;1.30;;;4.40;85.20;;;;;;4971844;28;20832;-84
2021/11/27 06:19:12;;;;;;;1.05;1.05;;;4.40;85.20;;;;;;4972064;28;20478;-84
2021/11/27 06:21:37;;;;;;;1.15;1.10;;;4.40;85.20;;;;;;4972293;28;20030;-84
2021/11/27 06:24:03;;;;;;;1.10;1.10;;;4.40;85.20;;;;;;4972127;28;20081;-84
2021/11/27 06:26:29;;;;;;;1.00;1.00;;;4.40;85.20;;;;;;4970166;28;20027;-84
2021/11/27 06:28:54;;;;;;;1.30;1.20;;;4.40;85.70;;;;;;4971759;28;20023;-84
2021/11/27 06:31:20;;;;;;;1.23;1.13;;;4.40;85.10;;;;;;4971752;28;20122;-84
2021/11/27 06:33:45;;;;;;;1.48;1.30;;;4.40;85.00;;;;;;4971613;28;20023;-83
2021/11/27 06:36:11;;;;;;;1.27;1.20;;;4.40;85.00;;;;;;4969114;28;20039;-84
2021/11/27 06:38:37;;;;;;;1.50;1.35;;;4.40;85.00;;;;;;4970286;28;20069;-84
2021/11/27 06:41:03;;;;;;;1.10;1.10;;;4.40;84.90;;;;;;4971839;28;20500;-84
2021/11/27 06:43:28;;;;;;;1.27;1.17;;;4.40;84.90;;;;;;4971104;28;20054;-84
2021/11/27 06:45:54;;;;;;;1.20;1.10;;;4.30;84.80;;;;;;4971111;28;20066;-84
2021/11/27 06:48:20;;;;;;;1.10;1.10;;;4.30;85.00;;;;;;4971706;28;20070;-84
2021/11/27 06:50:45;;;;;;;1.23;1.13;;;4.40;85.10;;;;;;4971413;28;20023;-84
2021/11/27 06:53:11;;;;;;;1.20;1.10;;;4.30;85.00;;;;;;4971451;28;20561;-83
2021/11/27 06:55:37;;;;;;;1.50;1.40;;;4.30;85.00;;;;;;4969483;28;20038;-83
2021/11/27 06:58:03;;;;;;;1.02;0.98;;;4.30;85.00;;;;;;4970596;28;20023;-84
2021/11/27 07:00:28;;;;;;;1.30;1.20;;;4.20;85.00;;;;;;4971210;28;20031;-84
2021/11/27 07:02:54;;;;;;;1.25;1.17;;;4.20;85.10;;;;;;4971642;28;20037;-84
2021/11/27 07:05:19;;;;;;;1.40;1.30;;;4.20;85.20;;;;;;4970379;28;20477;-84
2021/11/27 07:07:45;;;;;;;1.20;1.10;;;4.20;85.10;;;;;;4971565;28;20022;-84
2021/11/27 07:10:10;;;;;;;1.40;1.30;;;4.20;85.10;;;;;;4970927;28;20031;-84
2021/11/27 07:12:37;;;;;;;1.15;1.13;;;4.20;85.20;;;;;;4971707;28;20022;-84
2021/11/27 07:15:04;;;;;;;1.50;1.30;;;4.10;85.00;;;;;;4970254;28;20441;-84
2021/11/27 07:17:30;;;;;;;1.52;1.42;;;4.10;85.00;;;;;;4970919;28;20578;-84
2021/11/27 07:19:57;;;;;;;1.20;1.15;;;4.10;84.90;;;;;;4969609;28;20019;-83
2021/11/27 07:22:24;;;;;;;1.52;1.40;;;4.10;84.90;;;;;;4969923;28;20034;-82
2021/11/27 07:24:49;;;;;;;1.30;1.20;;;4.10;85.00;;;;;;4969365;28;20830;-83
2021/11/27 07:27:15;;;;;;;1.50;1.40;;;4.10;85.00;;;;;;4970818;28;20027;-84
2021/11/27 07:29:41;;;;;;;1.50;1.40;;;4.10;85.00;;;;;;4971027;28;20033;-83
2021/11/27 07:32:07;;;;;;;1.50;1.40;;;4.10;85.00;;;;;;4980581;28;20122;-83
2021/11/27 07:34:34;;;;;;;1.70;1.60;;;4.10;85.20;;;;;;4976609;28;20041;-84
2021/11/27 07:36:59;;;;;;;1.75;1.65;;;4.10;85.00;;;;;;4967377;28;20023;-83
2021/11/27 07:39:25;;;;;;;1.42;1.33;;;4.10;85.10;;;;;;4970826;28;20433;-84
2021/11/27 07:41:50;;;;;;;1.77;1.67;;;4.20;85.20;;;;;;4974029;28;20053;-84
2021/11/27 07:44:16;;;;;;;1.50;1.40;;;4.00;85.00;;;;;;4973303;28;20070;-83
2021/11/27 07:46:42;;;;;;;1.80;1.70;;;4.00;85.10;;;;;;4976167;28;20027;-83
2021/11/27 07:49:07;;;;;;;3.67;3.33;;;4.00;85.10;;;;;;4969870;28;20015;-82
2021/11/27 07:51:33;;;;;;;2.30;2.10;;;4.00;85.00;;;;;;4970730;28;20034;-82
2021/11/27 07:53:59;;;;;;;1.70;1.60;;;4.10;85.10;;;;;;4971002;28;20027;-83
2021/11/27 07:56:26;;;;;;;1.90;1.80;;;4.00;85.10;;;;;;4972483;28;20065;-82
2021/11/27 07:58:51;;;;;;;1.75;1.65;;;4.00;84.90;;;;;;4974768;28;20047;-82
2021/11/27 08:01:17;;;;;;;1.67;1.58;;;4.00;84.90;;;;;;4974735;28;20054;-81
2021/11/27 08:03:43;;;;;;;1.77;1.67;;;4.10;85.00;;;;;;4974271;28;20029;-84
2021/11/27 08:06:09;;;;;;;1.17;1.13;;;4.00;84.80;;;;;;4972598;28;20437;-83
2021/11/27 08:08:35;;;;;;;1.73;1.63;;;4.00;84.90;;;;;;4974344;28;20053;-84
2021/11/27 08:11:01;;;;;;;1.40;1.30;;;4.00;84.90;;;;;;4975594;28;20385;-84
2021/11/27 08:13:26;;;;;;;1.42;1.33;;;3.90;84.90;;;;;;4974149;28;20023;-83
2021/11/27 08:15:52;;;;;;;1.73;1.63;;;3.90;85.00;;;;;;4973174;28;20042;-83
2021/11/27 08:18:18;;;;;;;1.60;1.50;;;3.80;85.00;;;;;;4971033;28;20054;-81
2021/11/27 08:20:49;;;;;;;1.55;1.45;;;3.80;85.10;;;;;;4970803;28;20042;-83
2021/11/27 08:23:15;;;;;;;1.70;1.60;;;3.90;85.20;;;;;;4963306;28;20370;-82
2021/11/27 08:25:45;;;;;;;1.80;1.70;;;3.90;85.20;;;;;;4974833;28;20034;-82
2021/11/27 08:28:11;;;;;;;1.73;1.63;;;3.90;85.80;;;;;;4969533;28;20121;-84
2021/11/27 08:30:37;;;;;;;1.60;1.50;;;3.90;85.10;;;;;;4965156;28;20071;-81
2021/11/27 08:33:02;;;;;;;1.85;1.75;;;3.90;85.10;;;;;;4965995;28;20425;-82
2021/11/27 08:35:28;;;;;;;2.33;1.77;;;4.00;85.10;;;;;;4966289;28;20073;-83
2021/11/27 08:37:53;;;;;;;2.05;1.85;;;3.90;84.90;;;;;;4969931;28;20033;-83
2021/11/27 08:40:19;;;;;;;1.55;1.45;;;3.90;85.00;;;;;;4970081;28;20428;-82
2021/11/27 08:42:45;;;;;;;1.95;1.75;;;3.90;85.00;;;;;;4970837;28;20030;-83
2021/11/27 08:45:11;;;;;;;1.50;1.40;;;3.90;85.00;;;;;;4969116;28;20037;-83
2021/11/27 08:47:37;;;;;;;1.85;1.75;;;3.90;84.90;;;;;;4967068;28;20030;-84
2021/11/27 08:50:04;;;;;;;2.13;1.58;;;3.80;84.90;;;;;;4969456;28;20132;-83
2021/11/27 08:52:30;;;;;;;2.00;1.80;;;4.00;85.00;;;;;;4967101;28;20027;-83
2021/11/27 08:54:55;;;;;;;1.60;1.50;;;3.90;85.00;;;;;;4971402;28;20057;-83
2021/11/27 08:57:23;;;;;;;1.50;1.40;;;4.00;85.00;;;;;;4974628;28;20038;-83
2021/11/27 08:59:49;;;;;;;1.77;1.67;;;4.00;84.90;;;;;;4973045;28;20062;-83
2021/11/27 09:02:14;;;;;;;1.60;1.50;;;4.00;84.80;;;;;;4968976;28;20053;-84
2021/11/27 09:04:40;;;;;;;1.70;1.60;;;4.00;84.80;;;;;;4955587;28;20023;-83
2021/11/27 09:07:06;;;;;;;2.22;1.98;;;4.00;84.80;;;;;;4959760;28;20031;-84
2021/11/27 09:09:32;;;;;;;2.20;2.00;;;4.00;84.90;;;;;;4964855;28;20066;-85
2021/11/27 09:11:59;;;;;;;1.77;1.67;;;3.90;84.90;;;;;;4969894;28;20061;-88
2021/11/27 09:14:25;;;;;;;2.10;1.90;;;4.00;84.90;;;;;;4970580;28;20030;-88
2021/11/27 09:16:52;;;;;;;2.00;1.80;;;3.90;84.90;;;;;;4965754;28;20081;-82
2021/11/27 09:19:18;;;;;;;1.83;1.70;;;3.90;84.90;;;;;;4965036;28;20428;-82
2021/11/27 09:21:44;;;;;;;2.38;2.10;;;3.90;84.90;;;;;;4967544;28;20560;-82
2021/11/27 09:24:10;;;;;;;7.60;5.95;;;3.80;84.90;;;;;;4972191;28;20046;-82
2021/11/27 09:26:37;;;;;;;4.82;4.25;;;3.80;85.00;;;;;;4965289;28;20070;-81
2021/11/27 09:29:07;;;;;;;3.13;2.78;;;3.70;85.00;;;;;;4972410;28;20042;-81
2021/11/27 09:31:39;;;;;;;8.30;6.80;;;3.70;85.10;;;;;;4972891;28;20050;-83
2021/11/27 09:34:07;;;;;;;6.90;5.05;;;3.70;85.20;;;;;;4968670;28;20117;-81
2021/11/27 09:36:33;;;;;;;9.18;8.15;;;3.70;85.10;;;;;;4980347;28;20546;-81
2021/11/27 09:38:59;;;;;;;5.78;4.95;;;3.70;85.30;;;;;;4973241;28;20026;-81
2021/11/27 09:41:28;;;;;;;3.67;2.90;;;3.70;85.20;;;;;;4974153;28;20448;-82
2021/11/27 09:43:57;;;;;;;2.83;2.55;;;3.70;85.20;;;;;;4964673;28;20775;-82
2021/11/27 09:46:23;;;;;;;3.85;3.42;;;3.70;85.20;;;;;;4974610;28;20027;-81
2021/11/27 09:48:52;;;;;;;4.70;2.40;;;3.70;85.20;;;;;;4977808;28;20019;-80
2021/11/27 09:51:26;;;;;;;1.83;1.70;;;3.70;85.10;;;;;;4971775;28;20031;-80
2021/11/27 09:53:52;;;;;;;2.65;2.20;;;3.80;85.20;;;;;;4976395;28;20038;-80
2021/11/27 09:56:20;;;;;;;2.47;1.90;;;3.80;85.20;;;;;;4977122;28;20066;-80
2021/11/27 09:58:47;;;;;;;3.13;2.83;;;3.80;85.20;;;;;;4968702;28;20022;-81
2021/11/27 10:01:14;;;;;;;5.72;4.88;;;3.80;85.10;;;;;;4970677;28;20023;-81
2021/11/27 10:03:48;;;;;;;6.68;5.75;;;3.80;85.10;;;;;;4977425;28;20130;-82
2021/11/27 10:06:15;;;;;;;4.30;3.90;;;3.90;85.20;;;;;;4978884;28;20034;-82
2021/11/27 10:08:40;;;;;;;5.78;5.28;;;3.90;85.10;;;;;;4974039;28;20041;-82
2021/11/27 10:11:06;;;;;;;8.55;7.75;;;3.90;85.10;;;;;;4979519;28;20062;-82
2021/11/27 10:13:33;;;;;;;4.10;3.70;;;3.90;85.10;;;;;;4966296;28;20105;-82
2021/11/27 10:15:58;;;;;;;3.30;2.70;;;3.90;85.10;;;;;;4966246;28;20038;-82
2021/11/27 10:18:25;;;;;;;4.53;4.00;;;4.00;85.10;;;;;;4966684;28;20026;-82
2021/11/27 10:21:16;;;;;;;5.60;4.78;;;3.90;85.10;;;;;;4971550;28;20831;-82
2021/11/27 10:23:42;;;;;;;2.40;2.20;;;4.00;85.20;;;;;;4959661;28;20035;-82
2021/11/27 10:26:08;;;;;;;1.88;1.73;;;3.90;85.00;;;;;;4961326;28;20049;-82
2021/11/27 10:28:34;;;;;;;2.08;1.88;;;3.90;85.00;;;;;;4961444;28;20586;-82
2021/11/27 10:31:03;;;;;;;2.17;1.90;;;3.90;85.00;;;;;;4961653;28;20050;-83
2021/11/27 10:33:37;;;;;;;2.22;2.00;;;3.90;85.00;;;;;;4965178;28;20390;-83
2021/11/27 10:36:05;;;;;;;2.05;1.70;;;3.90;85.10;;;;;;4964670;28;20081;-83
2021/11/27 10:38:40;;;;;;;3.30;2.00;;;3.90;85.10;;;;;;4966254;28;20049;-83
2021/11/27 10:41:07;;;;;;;2.58;2.10;;;4.00;85.10;;;;;;4969962;28;20062;-83
2021/11/27 10:43:34;;;;;;;2.47;1.92;;;4.00;85.00;;;;;;4965221;28;20404;-83
2021/11/27 10:46:00;;;;;;;2.55;1.90;;;4.00;85.00;;;;;;4970608;28;20066;-83
2021/11/27 10:48:27;;;;;;;2.75;2.40;;;4.00;85.00;;;;;;4961073;28;20066;-83
2021/11/27 10:51:02;;;;;;;1.80;1.70;;;4.00;85.00;;;;;;4963773;28;20050;-82
2021/11/27 10:53:34;;;;;;;2.70;2.10;;;4.00;85.00;;;;;;4961437;28;20121;-82
2021/11/27 10:56:11;;;;;;;3.40;2.22;;;4.00;85.20;;;;;;4961906;28;20030;-81
2021/11/27 10:58:56;;;;;;;2.92;2.20;;;4.00;85.30;;;;;;4964789;28;20389;-82
2021/11/27 11:01:22;;;;;;;2.97;2.30;;;4.00;85.40;;;;;;4957230;28;20062;-82
2021/11/27 11:03:47;;;;;;;3.72;2.38;;;4.00;85.40;;;;;;4962192;28;20097;-82
2021/11/27 11:06:25;;;;;;;2.35;1.73;;;4.10;85.50;;;;;;4962275;28;20629;-82
2021/11/27 11:08:53;;;;;;;5.00;3.10;;;4.10;85.40;;;;;;4963282;28;20446;-82
2021/11/27 11:11:21;;;;;;;6.47;3.13;;;4.10;85.30;;;;;;4961310;28;20027;-82
2021/11/27 11:13:52;;;;;;;6.32;3.42;;;4.20;85.40;;;;;;4964013;28;20430;-82
2021/11/27 11:16:20;;;;;;;6.95;3.53;;;4.20;85.30;;;;;;4962861;28;20045;-82
2021/11/27 11:18:50;;;;;;;6.05;3.70;;;4.20;85.30;;;;;;4964171;28;20035;-82
2021/11/27 11:21:16;;;;;;;6.10;3.50;;;4.30;85.40;;;;;;4967977;28;20061;-81
2021/11/27 11:23:44;;;;;;;6.15;3.78;;;4.40;85.40;;;;;;4964096;28;20050;-81
2021/11/27 11:26:13;;;;;;;6.57;4.30;;;4.40;85.40;;;;;;4962251;28;20030;-82
2021/11/27 11:28:43;;;;;;;9.23;5.35;;;4.40;85.30;;;;;;4968727;28;20023;-82
2021/11/27 11:31:18;;;;;;;10.90;6.50;;;4.50;85.40;;;;;;4964952;28;20093;-82
2021/11/27 11:33:47;;;;;;;8.38;5.35;;;4.50;85.50;;;;;;4996823;28;20475;-82
2021/11/27 11:36:15;;;;;;;28.23;17.00;;;4.50;85.50;;;;;;4963300;28;20715;-80
2021/11/27 11:38:46;;;;;;;17.15;10.65;;;4.60;85.50;;;;;;4969508;28;20015;-81
2021/11/27 11:41:14;;;;;;;37.13;20.80;;;4.60;85.60;;;;;;4967775;28;20146;-81
2021/11/27 11:43:40;;;;;;;29.38;16.42;;;4.70;85.60;;;;;;4966310;28;20030;-81
2021/11/27 11:46:08;;;;;;;34.67;20.70;;;4.70;85.70;;;;;;4964057;28;20023;-81
2021/11/27 11:48:34;;;;;;;43.40;25.98;;;4.70;85.60;;;;;;4969523;28;20031;-81
2021/11/27 11:51:28;;;;;;;27.40;15.95;;;4.70;85.60;;;;;;4965084;28;20030;-82
2021/11/27 11:53:56;;;;;;;30.65;17.10;;;4.80;85.80;;;;;;4960757;28;20053;-81
2021/11/27 11:56:31;;;;;;;30.27;18.23;;;4.90;85.70;;;;;;4965512;28;20125;-82
2021/11/27 11:59:18;;;;;;;20.98;11.90;;;4.90;85.70;;;;;;4963361;28;20022;-81
2021/11/27 12:01:43;;;;;;;21.20;10.63;;;5.00;85.70;;;;;;4966138;28;20489;-81
2021/11/27 12:04:21;;;;;;;27.48;15.75;;;5.10;85.60;;;;;;4965854;28;20037;-80
2021/11/27 12:06:47;;;;;;;69.28;33.60;;;5.10;85.60;;;;;;4966310;28;20029;-82
2021/11/27 12:09:14;;;;;;;29.63;15.60;;;5.30;85.60;;;;;;4965592;28;20496;-80
2021/11/27 12:11:46;;;;;;;28.67;16.15;;;5.30;85.50;;;;;;4962910;28;20086;-81
2021/11/27 12:14:33;;;;;;;23.77;13.43;;;5.30;85.50;;;;;;4962393;28;20457;-82
2021/11/27 12:17:18;;;;;;;17.30;10.00;;;5.40;85.60;;;;;;4967277;28;20029;-81
2021/11/27 12:19:46;;;;;;;27.80;14.20;;;5.50;85.50;;;;;;4958811;28;20046;-82
2021/11/27 12:22:20;;;;;;;23.63;12.18;;;5.50;85.40;;;;;;4963069;28;20028;-83
2021/11/27 12:25:10;;;;;;;18.95;11.20;;;5.60;85.40;;;;;;4970901;28;20189;-83
2021/11/27 12:27:59;;;;;;;21.83;10.57;;;5.60;85.30;;;;;;4967166;28;20034;-83
2021/11/27 12:30:26;;;;;;;18.10;10.25;;;5.70;85.40;;;;;;4963084;28;20117;-82
2021/11/27 12:32:51;;;;;;;30.38;16.92;;;5.70;85.30;;;;;;4958857;28;20097;-82
2021/11/27 12:35:26;;;;;;;38.55;22.45;;;5.80;85.30;;;;;;4964361;28;20838;-82
2021/11/27 12:38:04;;;;;;;30.40;16.70;;;5.80;85.40;;;;;;4962800;28;20518;-82
2021/11/27 12:40:35;;;;;;;23.20;14.57;;;5.80;85.40;;;;;;4965245;28;20046;-83
2021/11/27 12:43:13;;;;;;;22.60;11.98;;;5.80;85.40;;;;;;4965108;28;20094;-82
2021/11/27 12:45:41;;;;;;;19.58;13.02;;;5.80;85.40;;;;;;4962815;28;20389;-82
2021/11/27 12:48:35;;;;;;;17.05;9.65;;;5.80;85.40;;;;;;4963777;28;20147;-84
2021/11/27 12:51:16;;;;;;;19.98;9.80;;;5.80;85.30;;;;;;4963675;28;20033;-84
2021/11/27 12:54:00;;;;;;;12.60;8.05;;;5.80;85.30;;;;;;4966771;28;20063;-82
2021/11/27 12:56:28;;;;;;;18.30;8.75;;;5.80;85.40;;;;;;4965697;28;20039;-82
2021/11/27 12:58:55;;;;;;;15.60;7.55;;;5.80;85.30;;;;;;4964671;28;20027;-81
2021/11/27 13:01:28;;;;;;;12.77;7.35;;;5.80;85.40;;;;;;4967134;28;20101;-81